sensor_id;sensor_type;location;lat;lon;timestamp;pressure;altitude;pressure_sealevel;temperature;humidity
81181;BME280;70650;51.408;7.132;2023-07-08T00:00:50;100662.19;;;19.34;57.27
81181;BME280;70650;51.408;7.132;2023-07-08T00:03:16;100654.66;;;19.49;56.62
81181;BME280;70650;51.408;7.132;2023-07-08T00:05:41;100651.28;;;19.47;56.72
81181;BME280;70650;51.408;7.132;2023-07-08T00:08:13;100642.47;;;19.35;56.88
81181;BME280;70650;51.408;7.132;2023-07-08T00:10:38;100642.00;;;19.30;57.13
81181;BME280;70650;51.408;7.132;2023-07-08T00:13:04;100650.69;;;19.22;57.56
81181;BME280;70650;51.408;7.132;2023-07-08T00:15:31;100635.28;;;19.15;57.18
81181;BME280;70650;51.408;7.132;2023-07-08T00:17:58;100640.31;;;19.08;57.52
81181;BME280;70650;51.408;7.132;2023-07-08T00:23:09;100633.25;;;19.07;57.72
81181;BME280;70650;51.408;7.132;2023-07-08T00:25:34;100631.03;;;19.12;57.30
81181;BME280;70650;51.408;7.132;2023-07-08T00:28:00;100633.25;;;19.07;57.50
81181;BME280;70650;51.408;7.132;2023-07-08T00:30:29;100631.56;;;19.06;57.94
81181;BME280;70650;51.408;7.132;2023-07-08T00:32:56;100628.00;;;19.05;57.37
81181;BME280;70650;51.408;7.132;2023-07-08T00:35:36;100624.47;;;19.05;57.24
81181;BME280;70650;51.408;7.132;2023-07-08T00:38:25;100628.00;;;19.05;57.43
81181;BME280;70650;51.408;7.132;2023-07-08T00:43:44;100626.31;;;19.04;57.36
81181;BME280;70650;51.408;7.132;2023-07-08T00:51:35;100630.56;;;19.07;57.37
81181;BME280;70650;51.408;7.132;2023-07-08T00:54:14;100629.28;;;19.01;57.82
81181;BME280;70650;51.408;7.132;2023-07-08T00:56:42;100629.13;;;19.03;57.41
81181;BME280;70650;51.408;7.132;2023-07-08T00:59:19;100627.91;;;19.07;56.98
81181;BME280;70650;51.408;7.132;2023-07-08T01:01:45;100617.69;;;19.01;57.46
81181;BME280;70650;51.408;7.132;2023-07-08T01:04:34;100626.44;;;19.03;57.36
81181;BME280;70650;51.408;7.132;2023-07-08T01:07:01;100615.50;;;19.06;57.32
81181;BME280;70650;51.408;7.132;2023-07-08T01:09:31;100613.56;;;18.97;57.59
81181;BME280;70650;51.408;7.132;2023-07-08T01:12:02;100618.66;;;19.00;57.57
81181;BME280;70650;51.408;7.132;2023-07-08T01:14:31;100608.59;;;18.92;57.99
81181;BME280;70650;51.408;7.132;2023-07-08T01:16:58;100610.69;;;18.89;58.24
81181;BME280;70650;51.408;7.132;2023-07-08T01:19:23;100602.31;;;18.82;58.08
81181;BME280;70650;51.408;7.132;2023-07-08T01:22:03;100611.34;;;18.81;58.41
81181;BME280;70650;51.408;7.132;2023-07-08T01:24:30;100604.16;;;18.82;58.21
81181;BME280;70650;51.408;7.132;2023-07-08T01:26:57;100605.97;;;18.81;58.21
81181;BME280;70650;51.408;7.132;2023-07-08T01:29:22;100597.94;;;18.81;58.67
81181;BME280;70650;51.408;7.132;2023-07-08T01:31:48;100603.81;;;18.75;58.61
81181;BME280;70650;51.408;7.132;2023-07-08T01:34:16;100605.66;;;18.74;58.23
81181;BME280;70650;51.408;7.132;2023-07-08T01:36:47;100604.66;;;18.75;58.13
81181;BME280;70650;51.408;7.132;2023-07-08T01:39:17;100602.97;;;18.74;58.53
81181;BME280;70650;51.408;7.132;2023-07-08T01:41:44;100600.28;;;18.74;58.50
81181;BME280;70650;51.408;7.132;2023-07-08T01:44:35;100595.31;;;18.70;58.91
81181;BME280;70650;51.408;7.132;2023-07-08T01:47:16;100597.84;;;18.71;59.07
81181;BME280;70650;51.408;7.132;2023-07-08T01:49:45;100596.94;;;18.61;59.60
81181;BME280;70650;51.408;7.132;2023-07-08T01:52:12;100592.63;;;18.70;59.45
81181;BME280;70650;51.408;7.132;2023-07-08T01:54:40;100601.69;;;18.58;60.00
81181;BME280;70650;51.408;7.132;2023-07-08T01:57:05;100593.25;;;18.62;59.70
81181;BME280;70650;51.408;7.132;2023-07-08T01:59:30;100595.09;;;18.62;59.60
81181;BME280;70650;51.408;7.132;2023-07-08T02:01:56;100589.13;;;18.58;60.15
81181;BME280;70650;51.408;7.132;2023-07-08T02:04:22;100591.69;;;18.60;60.20
81181;BME280;70650;51.408;7.132;2023-07-08T02:06:56;100587.16;;;18.60;59.83
81181;BME280;70650;51.408;7.132;2023-07-08T02:09:22;100587.31;;;18.59;59.95
81181;BME280;70650;51.408;7.132;2023-07-08T02:11:50;100582.56;;;18.62;59.71
81181;BME280;70650;51.408;7.132;2023-07-08T02:14:16;100581.75;;;18.50;59.48
81181;BME280;70650;51.408;7.132;2023-07-08T02:33:40;100561.94;;;18.42;60.52
81181;BME280;70650;51.408;7.132;2023-07-08T02:39:28;100558.78;;;18.37;60.45
81181;BME280;70650;51.408;7.132;2023-07-08T02:41:53;100562.97;;;18.30;60.74
81181;BME280;70650;51.408;7.132;2023-07-08T02:44:18;100563.59;;;18.22;61.37
81181;BME280;70650;51.408;7.132;2023-07-08T02:46:44;100559.34;;;18.19;61.20
81181;BME280;70650;51.408;7.132;2023-07-08T02:49:09;100561.16;;;18.19;61.33
81181;BME280;70650;51.408;7.132;2023-07-08T02:51:34;100555.72;;;18.09;61.67
81181;BME280;70650;51.408;7.132;2023-07-08T02:53:59;100562.31;;;18.05;61.38
81181;BME280;70650;51.408;7.132;2023-07-08T02:56:25;100561.22;;;17.96;62.15
81181;BME280;70650;51.408;7.132;2023-07-08T02:58:53;100562.06;;;17.97;61.92
81181;BME280;70650;51.408;7.132;2023-07-08T03:01:18;100569.63;;;17.92;62.72
81181;BME280;70650;51.408;7.132;2023-07-08T03:03:45;100568.06;;;17.89;63.29
81181;BME280;70650;51.408;7.132;2023-07-08T03:06:11;100570.75;;;17.89;64.25
81181;BME280;70650;51.408;7.132;2023-07-08T03:08:36;100570.59;;;17.91;63.07
81181;BME280;70650;51.408;7.132;2023-07-08T03:11:03;100573.63;;;17.97;62.66
81181;BME280;70650;51.408;7.132;2023-07-08T03:13:30;100576.44;;;17.96;63.11
81181;BME280;70650;51.408;7.132;2023-07-08T03:15:58;100563.44;;;17.91;63.30
81181;BME280;70650;51.408;7.132;2023-07-08T03:18:27;100562.81;;;17.99;63.02
81181;BME280;70650;51.408;7.132;2023-07-08T03:20:55;100566.00;;;17.93;63.54
81181;BME280;70650;51.408;7.132;2023-07-08T03:23:21;100560.16;;;17.99;62.90
81181;BME280;70650;51.408;7.132;2023-07-08T03:25:47;100559.03;;;18.01;62.85
81181;BME280;70650;51.408;7.132;2023-07-08T03:28:13;100564.34;;;18.13;61.07
81181;BME280;70650;51.408;7.132;2023-07-08T03:30:44;100557.06;;;18.04;61.33
81181;BME280;70650;51.408;7.132;2023-07-08T03:33:10;100561.06;;;18.09;61.04
81181;BME280;70650;51.408;7.132;2023-07-08T03:35:36;100557.06;;;18.04;62.11
81181;BME280;70650;51.408;7.132;2023-07-08T03:38:02;100565.88;;;17.94;62.10
81181;BME280;70650;51.408;7.132;2023-07-08T03:40:30;100565.75;;;17.85;63.11
81181;BME280;70650;51.408;7.132;2023-07-08T03:42:55;100561.59;;;17.92;62.14
81181;BME280;70650;51.408;7.132;2023-07-08T03:45:20;100567.94;;;17.91;62.64
81181;BME280;70650;51.408;7.132;2023-07-08T03:47:47;100565.75;;;17.85;63.04
81181;BME280;70650;51.408;7.132;2023-07-08T03:50:30;100569.16;;;17.87;63.15
81181;BME280;70650;51.408;7.132;2023-07-08T03:52:56;100557.56;;;17.97;62.21
81181;BME280;70650;51.408;7.132;2023-07-08T03:55:22;100567.34;;;17.87;63.31
81181;BME280;70650;51.408;7.132;2023-07-08T03:57:47;100567.94;;;17.80;63.85
81181;BME280;70650;51.408;7.132;2023-07-08T04:00:13;100571.59;;;17.90;63.66
81181;BME280;70650;51.408;7.132;2023-07-08T04:02:40;100570.75;;;17.89;64.05
81181;BME280;70650;51.408;7.132;2023-07-08T04:05:06;100574.75;;;17.84;64.84
81181;BME280;70650;51.408;7.132;2023-07-08T04:07:33;100566.38;;;17.77;63.42
81181;BME280;70650;51.408;7.132;2023-07-08T04:09:58;100564.69;;;17.76;63.54
81181;BME280;70650;51.408;7.132;2023-07-08T04:12:24;100567.84;;;17.81;63.79
81181;BME280;70650;51.408;7.132;2023-07-08T04:14:49;100562.72;;;17.78;64.50
81181;BME280;70650;51.408;7.132;2023-07-08T04:17:15;100568.78;;;17.80;64.87
81181;BME280;70650;51.408;7.132;2023-07-08T04:19:42;100570.03;;;17.76;64.57
81181;BME280;70650;51.408;7.132;2023-07-08T04:22:09;100571.09;;;17.62;64.80
81181;BME280;70650;51.408;7.132;2023-07-08T04:24:35;100576.56;;;17.61;64.58
81181;BME280;70650;51.408;7.132;2023-07-08T04:27:02;100577.56;;;17.60;65.11
81181;BME280;70650;51.408;7.132;2023-07-08T04:29:28;100586.53;;;17.70;64.65
81181;BME280;70650;51.408;7.132;2023-07-08T04:31:53;100580.31;;;17.69;65.14
81181;BME280;70650;51.408;7.132;2023-07-08T04:34:19;100582.41;;;17.66;65.34
81181;BME280;70650;51.408;7.132;2023-07-08T04:36:45;100580.81;;;17.63;65.50
81181;BME280;70650;51.408;7.132;2023-07-08T04:39:11;100597.13;;;17.60;65.43
81181;BME280;70650;51.408;7.132;2023-07-08T04:41:37;100588.84;;;17.63;66.22
81181;BME280;70650;51.408;7.132;2023-07-08T04:44:10;100589.94;;;17.61;66.25
81181;BME280;70650;51.408;7.132;2023-07-08T04:46:51;100598.81;;;17.61;66.30
81181;BME280;70650;51.408;7.132;2023-07-08T04:49:19;100599.44;;;17.65;66.49
81181;BME280;70650;51.408;7.132;2023-07-08T04:51:45;100586.78;;;17.67;64.89
81181;BME280;70650;51.408;7.132;2023-07-08T04:54:10;100596.63;;;17.66;65.82
81181;BME280;70650;51.408;7.132;2023-07-08T04:56:44;100584.34;;;17.75;65.18
81181;BME280;70650;51.408;7.132;2023-07-08T04:59:13;100597.25;;;17.70;65.44
81181;BME280;70650;51.408;7.132;2023-07-08T05:01:39;100595.66;;;17.67;65.65
81181;BME280;70650;51.408;7.132;2023-07-08T05:04:04;100582.53;;;17.64;66.34
81181;BME280;70650;51.408;7.132;2023-07-08T05:06:31;100595.16;;;17.62;67.52
81181;BME280;70650;51.408;7.132;2023-07-08T05:08:58;100594.09;;;17.65;67.58
81181;BME280;70650;51.408;7.132;2023-07-08T05:11:24;100593.34;;;17.63;67.97
81181;BME280;70650;51.408;7.132;2023-07-08T05:13:49;100590.78;;;17.61;67.56
81181;BME280;70650;51.408;7.132;2023-07-08T05:16:16;100591.50;;;17.63;67.81
81181;BME280;70650;51.408;7.132;2023-07-08T05:18:43;100592.84;;;17.69;67.85
81181;BME280;70650;51.408;7.132;2023-07-08T05:21:09;100591.03;;;17.81;66.76
81181;BME280;70650;51.408;7.132;2023-07-08T05:23:34;100592.88;;;17.80;67.80
81181;BME280;70650;51.408;7.132;2023-07-08T05:26:01;100588.38;;;17.81;69.55
81181;BME280;70650;51.408;7.132;2023-07-08T05:28:28;100601.28;;;17.76;69.14
81181;BME280;70650;51.408;7.132;2023-07-08T05:30:55;100592.03;;;17.80;68.90
81181;BME280;70650;51.408;7.132;2023-07-08T05:33:21;100592.63;;;17.83;68.61
81181;BME280;70650;51.408;7.132;2023-07-08T05:35:47;100588.75;;;17.87;68.53
81181;BME280;70650;51.408;7.132;2023-07-08T05:38:12;100588.47;;;17.90;68.64
81181;BME280;70650;51.408;7.132;2023-07-08T05:40:37;100589.19;;;18.04;67.78
81181;BME280;70650;51.408;7.132;2023-07-08T05:43:03;100590.25;;;18.12;66.90
81181;BME280;70650;51.408;7.132;2023-07-08T05:45:28;100588.31;;;18.14;67.88
81181;BME280;70650;51.408;7.132;2023-07-08T05:47:53;100585.34;;;18.28;65.28
81181;BME280;70650;51.408;7.132;2023-07-08T05:50:18;100587.72;;;18.43;65.48
81181;BME280;70650;51.408;7.132;2023-07-08T05:52:44;100587.50;;;18.46;65.20
81181;BME280;70650;51.408;7.132;2023-07-08T05:55:09;100581.81;;;18.60;64.03
81181;BME280;70650;51.408;7.132;2023-07-08T05:57:34;100582.78;;;18.70;64.17
81181;BME280;70650;51.408;7.132;2023-07-08T06:00:00;100579.34;;;18.79;63.44
81181;BME280;70650;51.408;7.132;2023-07-08T06:02:25;100579.78;;;18.85;63.79
81181;BME280;70650;51.408;7.132;2023-07-08T06:04:51;100580.50;;;18.87;64.03
81181;BME280;70650;51.408;7.132;2023-07-08T06:07:17;100590.38;;;18.86;64.36
81181;BME280;70650;51.408;7.132;2023-07-08T06:09:42;100580.34;;;18.88;63.39
81181;BME280;70650;51.408;7.132;2023-07-08T06:12:08;100584.03;;;18.87;63.48
81181;BME280;70650;51.408;7.132;2023-07-08T06:14:33;100585.72;;;18.88;63.84
81181;BME280;70650;51.408;7.132;2023-07-08T06:16:58;100581.81;;;18.92;62.44
81181;BME280;70650;51.408;7.132;2023-07-08T06:19:24;100578.47;;;19.00;62.84
81181;BME280;70650;51.408;7.132;2023-07-08T06:21:49;100585.41;;;19.02;64.06
81181;BME280;70650;51.408;7.132;2023-07-08T06:24:16;100584.50;;;19.13;63.40
81181;BME280;70650;51.408;7.132;2023-07-08T06:26:41;100580.28;;;19.20;63.96
81181;BME280;70650;51.408;7.132;2023-07-08T06:29:06;100581.97;;;19.21;64.22
81181;BME280;70650;51.408;7.132;2023-07-08T06:31:32;100586.81;;;19.27;65.15
81181;BME280;70650;51.408;7.132;2023-07-08T06:34:00;100596.75;;;19.37;64.72
81181;BME280;70650;51.408;7.132;2023-07-08T06:36:25;100590.00;;;19.42;64.63
81181;BME280;70650;51.408;7.132;2023-07-08T06:38:51;100593.69;;;19.51;63.82
81181;BME280;70650;51.408;7.132;2023-07-08T06:41:16;100591.47;;;19.56;63.81
81181;BME280;70650;51.408;7.132;2023-07-08T06:43:41;100596.91;;;19.66;63.62
81181;BME280;70650;51.408;7.132;2023-07-08T06:46:07;100589.91;;;19.74;62.86
81181;BME280;70650;51.408;7.132;2023-07-08T06:48:32;100587.50;;;19.81;63.21
81181;BME280;70650;51.408;7.132;2023-07-08T06:50:58;100596.31;;;19.93;63.87
81181;BME280;70650;51.408;7.132;2023-07-08T06:53:23;100592.06;;;20.00;63.37
81181;BME280;70650;51.408;7.132;2023-07-08T06:55:49;100592.94;;;20.10;62.71
81181;BME280;70650;51.408;7.132;2023-07-08T06:58:15;100588.88;;;20.25;62.24
81181;BME280;70650;51.408;7.132;2023-07-08T07:00:44;100579.81;;;20.36;62.06
81181;BME280;70650;51.408;7.132;2023-07-08T07:03:10;100590.88;;;20.43;62.26
81181;BME280;70650;51.408;7.132;2023-07-08T07:05:37;100588.34;;;20.51;61.83
81181;BME280;70650;51.408;7.132;2023-07-08T07:08:03;100584.00;;;20.59;61.38
81181;BME280;70650;51.408;7.132;2023-07-08T07:10:29;100582.53;;;20.75;60.78
81181;BME280;70650;51.408;7.132;2023-07-08T07:12:54;100586.06;;;20.95;60.15
81181;BME280;70650;51.408;7.132;2023-07-08T07:15:19;100580.66;;;21.04;60.15
81181;BME280;70650;51.408;7.132;2023-07-08T07:17:45;100572.56;;;21.14;59.96
81181;BME280;70650;51.408;7.132;2023-07-08T07:20:11;100577.25;;;21.22;59.65
81181;BME280;70650;51.408;7.132;2023-07-08T07:22:36;100578.34;;;21.29;58.66
81181;BME280;70650;51.408;7.132;2023-07-08T07:25:03;100574.06;;;21.46;59.27
81181;BME280;70650;51.408;7.132;2023-07-08T07:27:29;100569.78;;;21.53;59.40
81181;BME280;70650;51.408;7.132;2023-07-08T07:29:55;100576.00;;;21.63;58.83
81181;BME280;70650;51.408;7.132;2023-07-08T07:32:23;100576.19;;;21.79;58.44
81181;BME280;70650;51.408;7.132;2023-07-08T07:34:49;100590.28;;;21.91;58.29
81181;BME280;70650;51.408;7.132;2023-07-08T07:37:20;100584.66;;;22.12;57.76
81181;BME280;70650;51.408;7.132;2023-07-08T07:39:46;100582.97;;;22.29;57.48
81181;BME280;70650;51.408;7.132;2023-07-08T07:42:13;100589.94;;;22.49;56.46
81181;BME280;70650;51.408;7.132;2023-07-08T07:44:39;100590.97;;;22.74;55.70
81181;BME280;70650;51.408;7.132;2023-07-08T07:47:05;100589.41;;;23.07;53.88
81181;BME280;70650;51.408;7.132;2023-07-08T07:49:31;100591.50;;;23.39;54.63
81181;BME280;70650;51.408;7.132;2023-07-08T07:51:56;100589.66;;;23.66;53.70
81181;BME280;70650;51.408;7.132;2023-07-08T07:54:21;100588.56;;;23.93;52.33
81181;BME280;70650;51.408;7.132;2023-07-08T07:56:47;100585.06;;;24.00;52.55
81181;BME280;70650;51.408;7.132;2023-07-08T07:59:12;100586.91;;;24.08;52.52
81181;BME280;70650;51.408;7.132;2023-07-08T08:01:38;100587.59;;;24.10;51.89
81181;BME280;70650;51.408;7.132;2023-07-08T08:04:04;100591.84;;;24.13;51.16
81181;BME280;70650;51.408;7.132;2023-07-08T08:06:29;100592.69;;;24.13;52.14
81181;BME280;70650;51.408;7.132;2023-07-08T08:08:55;100585.84;;;24.35;50.61
81181;BME280;70650;51.408;7.132;2023-07-08T08:11:22;100589.91;;;24.47;52.69
81181;BME280;70650;51.408;7.132;2023-07-08T08:13:47;100597.19;;;24.63;51.33
81181;BME280;70650;51.408;7.132;2023-07-08T08:16:12;100598.38;;;24.52;51.62
81181;BME280;70650;51.408;7.132;2023-07-08T08:18:38;100600.06;;;24.53;51.54
81181;BME280;70650;51.408;7.132;2023-07-08T08:21:03;100594.97;;;24.67;51.07
81181;BME280;70650;51.408;7.132;2023-07-08T08:23:28;100597.88;;;24.81;51.18
81181;BME280;70650;51.408;7.132;2023-07-08T08:25:54;100594.31;;;25.22;50.58
81181;BME280;70650;51.408;7.132;2023-07-08T08:28:19;100598.00;;;25.29;50.59
81181;BME280;70650;51.408;7.132;2023-07-08T08:30:48;100587.84;;;25.39;49.88
81181;BME280;70650;51.408;7.132;2023-07-08T08:33:14;100591.91;;;25.43;49.33
81181;BME280;70650;51.408;7.132;2023-07-08T08:35:42;100597.47;;;25.97;51.08
81181;BME280;70650;51.408;7.132;2023-07-08T08:38:07;100599.31;;;26.05;50.45
81181;BME280;70650;51.408;7.132;2023-07-08T08:40:33;100606.03;;;26.09;47.89
81181;BME280;70650;51.408;7.132;2023-07-08T08:43:02;100599.03;;;26.23;48.74
81181;BME280;70650;51.408;7.132;2023-07-08T08:45:36;100596.09;;;26.32;41.31
81181;BME280;70650;51.408;7.132;2023-07-08T08:48:08;100602.53;;;26.62;37.24
81181;BME280;70650;51.408;7.132;2023-07-08T08:50:45;100601.41;;;26.72;36.32
81181;BME280;70650;51.408;7.132;2023-07-08T08:53:16;100605.44;;;26.99;34.21
81181;BME280;70650;51.408;7.132;2023-07-08T08:55:42;100590.56;;;27.17;33.51
81181;BME280;70650;51.408;7.132;2023-07-08T09:01:08;100600.66;;;27.68;34.21
81181;BME280;70650;51.408;7.132;2023-07-08T09:04:40;100605.41;;;28.25;31.55
81181;BME280;70650;51.408;7.132;2023-07-08T09:06:46;100610.38;;;28.58;32.42
81181;BME280;70650;51.408;7.132;2023-07-08T09:09:26;100605.97;;;28.57;32.44
81181;BME280;70650;51.408;7.132;2023-07-08T09:11:58;100606.28;;;28.68;32.43
81181;BME280;70650;51.408;7.132;2023-07-08T09:14:28;100605.78;;;28.79;31.76
81181;BME280;70650;51.408;7.132;2023-07-08T09:17:20;100610.75;;;28.76;33.16
81181;BME280;70650;51.408;7.132;2023-07-08T09:19:49;100609.91;;;28.75;32.75
81181;BME280;70650;51.408;7.132;2023-07-08T09:24:55;100612.06;;;28.37;32.01
81181;BME280;70650;51.408;7.132;2023-07-08T09:27:21;100608.94;;;28.40;32.56
81181;BME280;70650;51.408;7.132;2023-07-08T09:29:47;100601.13;;;28.01;32.26
81181;BME280;70650;51.408;7.132;2023-07-08T09:32:24;100603.81;;;28.16;34.09
81181;BME280;70650;51.408;7.132;2023-07-08T09:34:59;100592.47;;;28.70;32.50
81181;BME280;70650;51.408;7.132;2023-07-08T09:37:30;100594.09;;;29.07;29.13
81181;BME280;70650;51.408;7.132;2023-07-08T09:39:57;100592.97;;;28.95;29.80
81181;BME280;70650;51.408;7.132;2023-07-08T09:42:28;100599.94;;;29.04;31.64
81181;BME280;70650;51.408;7.132;2023-07-08T09:44:56;100602.44;;;28.99;31.09
81181;BME280;70650;51.408;7.132;2023-07-08T09:47:26;100604.69;;;29.51;29.79
81181;BME280;70650;51.408;7.132;2023-07-08T09:49:57;100605.72;;;29.85;27.86
81181;BME280;70650;51.408;7.132;2023-07-08T09:52:23;100597.38;;;29.93;29.86
81181;BME280;70650;51.408;7.132;2023-07-08T09:54:49;100600.28;;;29.85;29.55
81181;BME280;70650;51.408;7.132;2023-07-08T09:59:53;100607.91;;;30.03;27.93
81181;BME280;70650;51.408;7.132;2023-07-08T10:02:29;100615.19;;;30.37;27.91
81181;BME280;70650;51.408;7.132;2023-07-08T10:04:57;100610.97;;;30.34;28.93
81181;BME280;70650;51.408;7.132;2023-07-08T10:07:23;100607.56;;;30.13;28.98
81181;BME280;70650;51.408;7.132;2023-07-08T10:09:51;100613.91;;;30.33;28.57
81181;BME280;70650;51.408;7.132;2023-07-08T10:12:19;100603.59;;;30.22;29.30
81181;BME280;70650;51.408;7.132;2023-07-08T10:14:49;100606.84;;;30.04;28.55
81181;BME280;70650;51.408;7.132;2023-07-08T10:17:17;100605.72;;;29.78;29.00
81181;BME280;70650;51.408;7.132;2023-07-08T10:19:44;100605.13;;;29.55;28.77
81181;BME280;70650;51.408;7.132;2023-07-08T10:22:19;100600.00;;;30.15;27.09
81181;BME280;70650;51.408;7.132;2023-07-08T10:33:21;100585.84;;;30.66;27.16
81181;BME280;70650;51.408;7.132;2023-07-08T10:35:47;100581.25;;;30.73;28.20
81181;BME280;70650;51.408;7.132;2023-07-08T10:40:56;100575.97;;;30.65;27.44
81181;BME280;70650;51.408;7.132;2023-07-08T10:44:05;100579.53;;;30.65;28.42
81181;BME280;70650;51.408;7.132;2023-07-08T10:46:41;100568.44;;;31.00;25.43
81181;BME280;70650;51.408;7.132;2023-07-08T10:57:47;100572.03;;;30.94;26.44
81181;BME280;70650;51.408;7.132;2023-07-08T11:05:43;100560.66;;;30.97;25.73
81181;BME280;70650;51.408;7.132;2023-07-08T11:11:05;100553.31;;;31.04;26.33
81181;BME280;70650;51.408;7.132;2023-07-08T11:13:32;100550.53;;;31.24;24.64
81181;BME280;70650;51.408;7.132;2023-07-08T11:16:10;100552.25;;;31.31;27.22
81181;BME280;70650;51.408;7.132;2023-07-08T11:18:51;100557.91;;;31.30;27.49
81181;BME280;70650;51.408;7.132;2023-07-08T11:21:26;100550.56;;;31.30;26.04
81181;BME280;70650;51.408;7.132;2023-07-08T11:24:00;100549.53;;;31.31;25.33
81181;BME280;70650;51.408;7.132;2023-07-08T11:26:40;100552.47;;;31.10;26.01
81181;BME280;70650;51.408;7.132;2023-07-08T11:29:23;100559.56;;;31.24;25.38
81181;BME280;70650;51.408;7.132;2023-07-08T11:31:51;100557.25;;;31.48;24.40
81181;BME280;70650;51.408;7.132;2023-07-08T11:34:18;100550.97;;;31.40;24.42
81181;BME280;70650;51.408;7.132;2023-07-08T11:36:45;100549.25;;;31.53;24.76
81181;BME280;70650;51.408;7.132;2023-07-08T11:39:46;100550.72;;;31.55;25.80
81181;BME280;70650;51.408;7.132;2023-07-08T11:42:40;100541.81;;;31.73;24.92
81181;BME280;70650;51.408;7.132;2023-07-08T11:45:22;100545.41;;;31.67;25.10
81181;BME280;70650;51.408;7.132;2023-07-08T11:47:49;100543.06;;;31.84;24.42
81181;BME280;70650;51.408;7.132;2023-07-08T11:50:21;100550.81;;;31.87;26.54
81181;BME280;70650;51.408;7.132;2023-07-08T11:53:02;100537.28;;;31.99;24.93
81181;BME280;70650;51.408;7.132;2023-07-08T11:58:26;100529.91;;;31.48;26.22
81181;BME280;70650;51.408;7.132;2023-07-08T12:03:47;100526.31;;;31.60;24.80
81181;BME280;70650;51.408;7.132;2023-07-08T12:09:00;100535.16;;;32.07;24.99
81181;BME280;70650;51.408;7.132;2023-07-08T12:11:40;100538.44;;;32.23;24.65
81181;BME280;70650;51.408;7.132;2023-07-08T12:14:08;100535.84;;;32.28;25.30
81181;BME280;70650;51.408;7.132;2023-07-08T12:16:34;100529.03;;;32.43;22.12
81181;BME280;70650;51.408;7.132;2023-07-08T12:19:00;100522.84;;;32.55;24.73
81181;BME280;70650;51.408;7.132;2023-07-08T12:21:27;100517.66;;;32.47;24.50
81181;BME280;70650;51.408;7.132;2023-07-08T12:23:53;100530.50;;;32.71;24.01
81181;BME280;70650;51.408;7.132;2023-07-08T12:26:20;100524.06;;;32.84;23.51
81181;BME280;70650;51.408;7.132;2023-07-08T12:28:46;100516.94;;;32.83;23.41
81181;BME280;70650;51.408;7.132;2023-07-08T12:31:20;100522.81;;;32.86;24.12
81181;BME280;70650;51.408;7.132;2023-07-08T12:33:46;100516.72;;;33.09;23.76
81181;BME280;70650;51.408;7.132;2023-07-08T12:36:20;100523.16;;;32.96;22.71
81181;BME280;70650;51.408;7.132;2023-07-08T12:38:46;100511.91;;;33.23;21.61
81181;BME280;70650;51.408;7.132;2023-07-08T12:41:17;100508.16;;;33.42;25.56
81181;BME280;70650;51.408;7.132;2023-07-08T12:43:43;100503.31;;;33.56;26.51
81181;BME280;70650;51.408;7.132;2023-07-08T12:46:10;100498.69;;;33.57;25.70
81181;BME280;70650;51.408;7.132;2023-07-08T12:48:37;100501.19;;;33.58;26.29
81181;BME280;70650;51.408;7.132;2023-07-08T12:51:04;100502.56;;;33.67;25.93
81181;BME280;70650;51.408;7.132;2023-07-08T12:53:30;100493.94;;;33.64;23.08
81181;BME280;70650;51.408;7.132;2023-07-08T12:55:58;100502.66;;;33.61;22.91
81181;BME280;70650;51.408;7.132;2023-07-08T12:58:26;100502.88;;;33.59;22.10
81181;BME280;70650;51.408;7.132;2023-07-08T13:00:54;100506.28;;;33.73;23.51
81181;BME280;70650;51.408;7.132;2023-07-08T13:03:23;100505.75;;;34.13;22.07
81181;BME280;70650;51.408;7.132;2023-07-08T13:05:50;100501.47;;;34.82;21.82
81181;BME280;70650;51.408;7.132;2023-07-08T13:08:21;100510.53;;;35.41;21.79
81181;BME280;70650;51.408;7.132;2023-07-08T13:10:48;100497.97;;;35.86;20.01
81181;BME280;70650;51.408;7.132;2023-07-08T13:13:21;100501.00;;;36.29;19.68
81181;BME280;70650;51.408;7.132;2023-07-08T13:15:47;100506.50;;;36.29;20.55
81181;BME280;70650;51.408;7.132;2023-07-08T13:18:19;100506.53;;;36.46;20.31
81181;BME280;70650;51.408;7.132;2023-07-08T13:20:49;100498.78;;;36.94;19.13
81181;BME280;70650;51.408;7.132;2023-07-08T13:23:16;100505.25;;;37.04;18.57
81181;BME280;70650;51.408;7.132;2023-07-08T13:25:41;100506.56;;;37.57;18.75
81181;BME280;70650;51.408;7.132;2023-07-08T13:28:27;100507.50;;;37.68;16.94
81181;BME280;70650;51.408;7.132;2023-07-08T13:31:01;100498.31;;;38.11;16.84
81181;BME280;70650;51.408;7.132;2023-07-08T13:33:32;100506.72;;;38.49;17.06
81181;BME280;70650;51.408;7.132;2023-07-08T13:36:01;100504.22;;;38.47;16.56
81181;BME280;70650;51.408;7.132;2023-07-08T13:38:32;100502.19;;;38.69;16.86
81181;BME280;70650;51.408;7.132;2023-07-08T13:41:02;100502.31;;;39.27;16.99
81181;BME280;70650;51.408;7.132;2023-07-08T13:43:30;100499.88;;;39.41;16.40
81181;BME280;70650;51.408;7.132;2023-07-08T13:45:57;100509.94;;;39.62;16.33
81181;BME280;70650;51.408;7.132;2023-07-08T13:53:46;100498.13;;;40.03;15.67
81181;BME280;70650;51.408;7.132;2023-07-08T13:56:20;100503.66;;;39.97;16.62
81181;BME280;70650;51.408;7.132;2023-07-08T13:58:51;100507.06;;;40.50;16.91
81181;BME280;70650;51.408;7.132;2023-07-08T14:01:21;100505.69;;;40.73;15.82
81181;BME280;70650;51.408;7.132;2023-07-08T14:03:47;100515.91;;;41.09;14.98
81181;BME280;70650;51.408;7.132;2023-07-08T14:06:17;100507.59;;;40.42;14.88
81181;BME280;70650;51.408;7.132;2023-07-08T14:08:43;100506.25;;;40.50;15.15
81181;BME280;70650;51.408;7.132;2023-07-08T14:11:08;100504.00;;;40.26;14.84
81181;BME280;70650;51.408;7.132;2023-07-08T14:13:34;100499.03;;;40.23;14.79
81181;BME280;70650;51.408;7.132;2023-07-08T14:15:59;100498.47;;;39.33;15.54
81181;BME280;70650;51.408;7.132;2023-07-08T14:18:25;100496.28;;;39.40;16.09